Terminal Aerodrome Forecast
Issued by NWS

Home | Current Version | Previous Version | Text Only | Print | Product List | Glossary On
Versions: 1 2 3 4 5 6 7 8 9 10 11 12 13 14 15
000
FTUS43 KAPX 290520
TAFMBL
TAF
KMBL 290520Z 2906/3006 04006KT P6SM -SHRA BKN040 OVC080
     FM291400 08006KT P6SM BKN070
     FM291800 03007KT P6SM SCT050
     FM300100 06004KT P6SM BKN060=

USA.gov is the U.S. government's official web portal to all federal, state and local government web resources and services.